createdAt,value
2023-01-06T00:00:37.563Z,10.70
2023-01-06T00:03:04.408Z,10.70
2023-01-06T00:05:31.571Z,10.70
2023-01-06T00:07:59.300Z,10.70
2023-01-06T00:10:26.586Z,10.70
2023-01-06T00:12:53.935Z,10.70
2023-01-06T00:15:21.157Z,10.70
2023-01-06T00:17:47.891Z,10.70
2023-01-06T00:20:15.328Z,10.70
2023-01-06T00:22:43.624Z,10.60
2023-01-06T00:25:10.820Z,10.70
2023-01-06T00:27:38.967Z,10.70
2023-01-06T00:30:07.579Z,10.70
2023-01-06T00:32:34.344Z,10.70
2023-01-06T00:35:01.578Z,10.70
2023-01-06T00:39:55.583Z,10.70
2023-01-06T00:42:22.760Z,10.80
2023-01-06T00:44:49.819Z,12.70
2023-01-06T00:47:17.107Z,10.80
2023-01-06T00:49:43.878Z,10.80
2023-01-06T00:52:11.377Z,10.80
2023-01-06T00:54:38.138Z,10.80
2023-01-06T00:57:07.093Z,10.80
2023-01-06T00:59:34.282Z,10.80
2023-01-06T01:02:01.328Z,10.80
2023-01-06T01:04:29.254Z,10.80
2023-01-06T01:06:56.264Z,10.70
2023-01-06T01:09:25.966Z,10.80
2023-01-06T01:12:11.947Z,10.80
2023-01-06T01:14:39.872Z,10.80
2023-01-06T01:17:06.977Z,10.80
2023-01-06T01:19:33.982Z,10.80
2023-01-06T01:22:01.105Z,10.80
2023-01-06T01:24:27.795Z,10.80
2023-01-06T01:29:21.837Z,10.90
2023-01-06T01:34:16.798Z,10.80
2023-01-06T01:36:45.437Z,10.80
2023-01-06T01:39:14.242Z,10.80
2023-01-06T01:44:46.013Z,10.90
2023-01-06T01:47:16.960Z,10.80
2023-01-06T01:49:46.674Z,10.80
2023-01-06T01:57:19.117Z,10.80
2023-01-06T02:02:16.021Z,10.80
2023-01-06T02:04:45.115Z,10.80
2023-01-06T02:07:12.571Z,10.80
2023-01-06T02:10:00.613Z,10.70
2023-01-06T02:12:27.326Z,10.80
2023-01-06T02:14:54.075Z,10.70
2023-01-06T02:17:58.331Z,10.90
2023-01-06T02:20:46.142Z,10.70
2023-01-06T02:23:21.636Z,10.70
2023-01-06T02:26:18.494Z,10.70
2023-01-06T02:29:06.156Z,10.60
2023-01-06T02:31:44.713Z,10.70
2023-01-06T02:34:39.714Z,10.70
2023-01-06T02:40:12.293Z,10.60
2023-01-06T02:42:42.104Z,10.60
2023-01-06T02:45:21.084Z,10.60
2023-01-06T02:50:25.138Z,10.60
2023-01-06T02:53:13.777Z,10.60
2023-01-06T02:55:49.392Z,10.60
2023-01-06T02:58:36.044Z,13.40
2023-01-06T03:03:35.176Z,10.70
2023-01-06T03:06:09.974Z,10.70
2023-01-06T03:08:37.540Z,10.60
2023-01-06T03:11:05.039Z,10.70
2023-01-06T03:14:11.130Z,10.70
2023-01-06T03:16:37.842Z,10.70
2023-01-06T03:19:04.777Z,10.70
2023-01-06T03:21:36.038Z,9.50
2023-01-06T03:24:05.543Z,10.70
2023-01-06T03:26:32.312Z,10.70
2023-01-06T03:29:00.434Z,10.70
2023-01-06T03:32:00.592Z,10.70
2023-01-06T03:34:45.792Z,11.00
2023-01-06T03:37:40.369Z,10.70
2023-01-06T03:40:15.547Z,10.70
2023-01-06T03:43:08.505Z,10.80
2023-01-06T03:45:51.125Z,10.70
2023-01-06T03:48:48.615Z,10.70
2023-01-06T03:51:30.811Z,10.70
2023-01-06T03:54:15.445Z,10.70
2023-01-06T03:56:47.044Z,10.70
2023-01-06T03:59:19.784Z,10.70
2023-01-06T04:04:15.866Z,10.70
2023-01-06T04:09:09.634Z,10.60
2023-01-06T04:14:22.126Z,10.60
2023-01-06T04:16:49.037Z,10.60
2023-01-06T04:19:15.773Z,10.60
2023-01-06T04:21:42.460Z,10.60
2023-01-06T04:24:09.277Z,10.50
2023-01-06T04:29:03.202Z,10.50
2023-01-06T04:33:57.114Z,10.50
2023-01-06T04:38:50.919Z,10.50
2023-01-06T04:41:17.676Z,10.60
2023-01-06T04:46:11.761Z,10.50
2023-01-06T04:51:10.412Z,10.50
2023-01-06T04:53:40.188Z,10.50
2023-01-06T04:56:10.042Z,10.60
2023-01-06T04:58:37.713Z,10.50
2023-01-06T05:01:10.097Z,10.50
2023-01-06T05:03:37.262Z,10.50
2023-01-06T05:06:06.034Z,10.40
2023-01-06T05:08:32.733Z,10.50
2023-01-06T05:11:04.735Z,10.50
2023-01-06T05:13:32.007Z,10.50
2023-01-06T05:15:58.851Z,10.60
2023-01-06T05:20:53.806Z,10.60
2023-01-06T05:23:21.237Z,10.60
2023-01-06T05:25:51.141Z,10.70
2023-01-06T05:30:45.320Z,10.70
2023-01-06T05:35:39.156Z,10.80
2023-01-06T05:38:05.893Z,10.80
2023-01-06T05:42:59.640Z,10.90
2023-01-06T05:45:26.477Z,10.90
2023-01-06T05:47:53.323Z,10.90
2023-01-06T05:55:14.221Z,10.70
2023-01-06T06:00:08.736Z,10.80
2023-01-06T06:05:02.528Z,10.80
2023-01-06T06:07:29.181Z,10.80
2023-01-06T06:12:22.969Z,10.80
2023-01-06T06:19:43.734Z,10.80
2023-01-06T06:22:10.833Z,10.80
2023-01-06T06:24:37.652Z,10.80
2023-01-06T06:27:04.615Z,10.70
2023-01-06T06:34:25.719Z,10.60
2023-01-06T06:39:19.912Z,10.60
2023-01-06T06:44:13.596Z,10.60
2023-01-06T06:46:40.472Z,10.80
2023-01-06T06:54:04.121Z,11.20
2023-01-06T06:56:30.819Z,10.80
2023-01-06T07:06:26.137Z,10.80
2023-01-06T07:11:21.469Z,10.90
2023-01-06T07:16:16.035Z,10.90
2023-01-06T07:18:42.821Z,10.90
2023-01-06T07:21:09.603Z,10.90
2023-01-06T07:26:03.899Z,10.90
2023-01-06T07:30:58.648Z,10.90
2023-01-06T07:33:25.375Z,11.00
2023-01-06T07:35:54.010Z,10.90
2023-01-06T07:38:20.729Z,10.90
2023-01-06T07:40:47.899Z,10.80
2023-01-06T07:43:14.776Z,10.80
2023-01-06T07:48:09.677Z,10.70
2023-01-06T07:50:36.378Z,10.80
2023-01-06T07:53:03.994Z,10.80
2023-01-06T07:57:58.934Z,10.80
2023-01-06T08:02:53.344Z,10.90
2023-01-06T08:07:47.203Z,11.00
2023-01-06T08:10:13.851Z,11.00
2023-01-06T08:15:08.195Z,11.10
2023-01-06T08:17:34.898Z,11.10
2023-01-06T08:20:01.589Z,11.10
2023-01-06T08:22:28.287Z,11.10
2023-01-06T08:39:38.488Z,11.20
2023-01-06T08:42:05.435Z,11.20
2023-01-06T08:49:26.340Z,11.20
2023-01-06T08:51:53.274Z,11.20
2023-01-06T08:56:47.089Z,11.30
2023-01-06T08:59:16.743Z,11.20
2023-01-06T09:01:44.580Z,11.30
2023-01-06T09:04:12.389Z,11.30
2023-01-06T09:06:41.700Z,11.30
2023-01-06T09:11:35.908Z,11.40
2023-01-06T09:21:25.133Z,11.60
2023-01-06T09:23:52.128Z,11.70
2023-01-06T09:26:20.072Z,11.70
2023-01-06T09:28:47.449Z,11.80
2023-01-06T09:31:14.207Z,11.80
2023-01-06T09:33:40.990Z,11.90
2023-01-06T09:38:34.984Z,11.90
2023-01-06T09:41:10.625Z,11.90
2023-01-06T09:43:40.069Z,12.00
2023-01-06T09:46:10.372Z,12.00
2023-01-06T09:48:49.560Z,12.10
2023-01-06T09:51:22.582Z,12.20
2023-01-06T09:53:56.776Z,12.20
2023-01-06T09:56:24.795Z,12.20
2023-01-06T09:59:11.705Z,12.10
2023-01-06T10:01:43.338Z,12.20
2023-01-06T10:04:25.655Z,12.20
2023-01-06T10:07:04.347Z,12.20
2023-01-06T10:10:09.433Z,12.10
2023-01-06T10:12:51.483Z,12.10
2023-01-06T10:15:29.872Z,12.10
2023-01-06T10:18:05.317Z,12.20
2023-01-06T10:20:40.877Z,12.20
2023-01-06T10:23:13.643Z,12.30
2023-01-06T10:25:41.578Z,12.30
2023-01-06T10:28:19.556Z,12.40
2023-01-06T10:30:50.492Z,12.40
2023-01-06T10:33:29.644Z,12.30
2023-01-06T10:35:58.063Z,12.30
2023-01-06T10:38:33.897Z,12.10
2023-01-06T10:41:12.116Z,12.00
2023-01-06T10:43:38.852Z,11.90
2023-01-06T10:48:34.250Z,11.80
2023-01-06T10:51:38.248Z,11.90
2023-01-06T10:54:17.094Z,11.90
2023-01-06T10:56:48.349Z,11.90
2023-01-06T11:01:53.163Z,12.20
2023-01-06T11:04:21.413Z,12.30
2023-01-06T11:07:02.663Z,12.40
2023-01-06T11:09:47.426Z,12.60
2023-01-06T11:12:26.861Z,12.80
2023-01-06T11:15:03.233Z,12.90
2023-01-06T11:17:30.378Z,13.00
2023-01-06T11:20:29.219Z,12.90
2023-01-06T11:25:32.210Z,13.00
2023-01-06T11:28:20.951Z,13.00
2023-01-06T11:31:06.835Z,12.90
2023-01-06T11:33:37.547Z,12.90
2023-01-06T11:36:10.180Z,13.00
2023-01-06T11:39:03.830Z,12.90
2023-01-06T11:41:39.683Z,12.80
2023-01-06T11:44:37.332Z,12.80
2023-01-06T11:47:12.288Z,12.80
2023-01-06T11:49:47.648Z,12.70
2023-01-06T11:52:33.381Z,12.60
2023-01-06T11:57:32.910Z,12.60
2023-01-06T12:00:11.560Z,12.50
2023-01-06T12:03:07.461Z,12.50
2023-01-06T12:05:39.081Z,12.30
2023-01-06T12:08:15.815Z,12.10
2023-01-06T12:10:45.239Z,12.00
2023-01-06T12:13:14.618Z,11.90
2023-01-06T12:15:43.208Z,12.00
2023-01-06T12:18:20.258Z,12.00
2023-01-06T12:20:50.220Z,12.10
2023-01-06T12:23:39.516Z,12.10
2023-01-06T12:26:14.646Z,12.20
2023-01-06T12:28:45.321Z,12.20
2023-01-06T12:31:37.169Z,12.20
2023-01-06T12:34:10.013Z,12.20
2023-01-06T12:36:45.810Z,12.10
2023-01-06T12:39:19.013Z,12.10
2023-01-06T12:42:06.692Z,12.20
2023-01-06T12:44:44.771Z,12.20
2023-01-06T12:47:17.444Z,12.20
2023-01-06T12:50:04.189Z,12.20
2023-01-06T12:52:37.283Z,12.20
2023-01-06T12:55:05.227Z,12.20
2023-01-06T12:57:53.721Z,12.20
2023-01-06T13:00:48.666Z,12.20
2023-01-06T13:03:21.163Z,12.30
2023-01-06T13:06:13.886Z,12.40
2023-01-06T13:08:58.833Z,12.40
2023-01-06T13:11:47.274Z,12.40
2023-01-06T13:14:17.188Z,12.50
2023-01-06T13:16:51.432Z,12.40
2023-01-06T13:19:39.556Z,12.60
2023-01-06T13:22:11.117Z,12.60
2023-01-06T13:24:57.402Z,12.40
2023-01-06T13:27:33.836Z,12.30
2023-01-06T13:30:34.739Z,12.20
2023-01-06T13:33:29.483Z,12.10
2023-01-06T13:36:14.508Z,12.10
2023-01-06T13:39:05.529Z,12.10
2023-01-06T13:41:36.852Z,12.10
2023-01-06T13:44:10.004Z,12.20
2023-01-06T13:49:05.908Z,12.20
2023-01-06T13:51:36.611Z,12.30
2023-01-06T13:54:03.937Z,12.20
2023-01-06T13:56:33.328Z,12.20
2023-01-06T13:59:20.279Z,12.10
2023-01-06T14:01:47.678Z,12.00
2023-01-06T14:04:33.031Z,12.00
2023-01-06T14:07:01.151Z,11.90
2023-01-06T14:09:28.871Z,11.90
2023-01-06T14:12:09.297Z,11.80
2023-01-06T14:14:39.141Z,11.90
2023-01-06T14:19:39.848Z,11.80
2023-01-06T14:22:16.932Z,11.80
2023-01-06T14:24:51.228Z,11.80
2023-01-06T14:27:46.771Z,11.80
2023-01-06T14:30:25.439Z,11.80
2023-01-06T14:32:52.180Z,11.70
2023-01-06T14:35:35.502Z,11.60
2023-01-06T14:38:15.015Z,11.70
2023-01-06T14:40:51.542Z,11.70
2023-01-06T14:43:30.011Z,11.70
2023-01-06T14:46:01.543Z,11.70
2023-01-06T14:48:32.247Z,11.70
2023-01-06T14:50:59.151Z,11.70
2023-01-06T14:53:35.695Z,11.70
2023-01-06T14:56:03.538Z,11.70
2023-01-06T14:58:38.160Z,11.60
2023-01-06T15:01:06.862Z,11.60
2023-01-06T15:03:34.677Z,11.70
2023-01-06T15:06:20.894Z,11.60
2023-01-06T15:08:48.550Z,11.60
2023-01-06T15:11:28.367Z,11.60
2023-01-06T15:13:55.834Z,11.60
2023-01-06T15:16:35.821Z,11.60
2023-01-06T15:19:06.923Z,11.60
2023-01-06T15:21:45.834Z,11.50
2023-01-06T15:24:35.390Z,11.60
2023-01-06T15:27:08.215Z,11.60
2023-01-06T15:29:35.140Z,11.60
2023-01-06T15:32:03.060Z,11.50
2023-01-06T15:34:35.318Z,11.40
2023-01-06T15:37:04.465Z,11.50
2023-01-06T15:39:33.899Z,11.40
2023-01-06T15:42:02.339Z,11.40
2023-01-06T15:44:35.454Z,11.40
2023-01-06T15:47:07.986Z,14.00
2023-01-06T15:49:38.647Z,11.40
2023-01-06T15:52:08.123Z,11.40
2023-01-06T15:54:37.833Z,11.40
2023-01-06T15:57:16.608Z,11.40
2023-01-06T15:59:56.904Z,11.40
2023-01-06T16:02:28.334Z,11.40
2023-01-06T16:04:55.912Z,11.30
2023-01-06T16:07:41.228Z,11.40
2023-01-06T16:10:29.825Z,11.30
2023-01-06T16:13:18.633Z,11.30
2023-01-06T16:15:53.686Z,11.30
2023-01-06T16:18:35.142Z,11.30
2023-01-06T16:21:20.260Z,11.30
2023-01-06T16:23:50.866Z,11.30
2023-01-06T16:26:23.700Z,11.30
2023-01-06T16:28:53.081Z,11.20
2023-01-06T16:31:36.698Z,11.30
2023-01-06T16:34:21.656Z,11.20
2023-01-06T16:36:56.199Z,11.20
2023-01-06T16:39:23.006Z,11.10
2023-01-06T16:41:58.470Z,11.00
2023-01-06T16:44:26.060Z,10.90
2023-01-06T16:46:53.079Z,10.90
2023-01-06T16:49:20.729Z,10.80
2023-01-06T16:51:47.700Z,10.90
2023-01-06T16:54:18.539Z,10.70
2023-01-06T16:56:46.490Z,10.70
2023-01-06T16:59:18.352Z,10.80
2023-01-06T17:01:47.312Z,10.80
2023-01-06T17:04:15.500Z,10.90
2023-01-06T17:06:43.966Z,10.80
2023-01-06T17:09:21.644Z,10.80
2023-01-06T17:11:52.755Z,10.80
2023-01-06T17:14:21.774Z,10.80
2023-01-06T17:16:49.271Z,10.90
2023-01-06T17:19:27.409Z,10.90
2023-01-06T17:22:26.247Z,10.90
2023-01-06T17:24:53.158Z,11.00
2023-01-06T17:27:29.969Z,11.00
2023-01-06T17:30:01.422Z,11.00
2023-01-06T17:32:38.017Z,11.00
2023-01-06T17:35:23.503Z,10.90
2023-01-06T17:37:50.261Z,10.90
2023-01-06T17:40:19.010Z,10.90
2023-01-06T17:42:53.894Z,10.90
2023-01-06T17:45:28.452Z,10.90
2023-01-06T17:47:56.692Z,10.90
2023-01-06T17:50:27.833Z,11.00
2023-01-06T17:53:36.110Z,11.00
2023-01-06T17:56:09.046Z,11.00
2023-01-06T17:58:41.250Z,11.10
2023-01-06T18:01:10.067Z,11.10
2023-01-06T18:03:39.780Z,11.10
2023-01-06T18:06:08.813Z,11.10
2023-01-06T18:08:37.673Z,11.10
2023-01-06T18:11:10.457Z,11.10
2023-01-06T18:13:39.857Z,11.10
2023-01-06T18:16:32.363Z,11.00
2023-01-06T18:19:07.095Z,10.90
2023-01-06T18:21:39.087Z,10.80
2023-01-06T18:24:39.157Z,10.90
2023-01-06T18:27:16.436Z,10.90
2023-01-06T18:29:44.595Z,10.90
2023-01-06T18:32:31.812Z,10.90
2023-01-06T18:35:06.176Z,10.80
2023-01-06T18:37:35.254Z,10.90
2023-01-06T18:40:05.896Z,10.90
2023-01-06T18:42:35.980Z,10.90
2023-01-06T18:45:08.954Z,11.00
2023-01-06T18:47:41.611Z,11.00
2023-01-06T18:50:44.297Z,11.00
2023-01-06T18:53:40.049Z,11.00
2023-01-06T18:56:15.485Z,11.00
2023-01-06T18:58:49.606Z,11.00
2023-01-06T19:01:35.229Z,11.00
2023-01-06T19:04:32.671Z,11.10
2023-01-06T19:07:09.429Z,11.10
2023-01-06T19:09:44.405Z,11.10
2023-01-06T19:12:30.401Z,11.10
2023-01-06T19:15:21.839Z,11.20
2023-01-06T19:17:50.164Z,11.20
2023-01-06T19:20:23.133Z,11.20
2023-01-06T19:22:50.115Z,11.20
2023-01-06T19:25:29.171Z,11.10
2023-01-06T19:27:56.793Z,11.20
2023-01-06T19:30:29.546Z,11.10
2023-01-06T19:33:10.313Z,11.20
2023-01-06T19:35:37.775Z,11.20
2023-01-06T19:38:20.231Z,11.10
2023-01-06T19:40:46.909Z,11.10
2023-01-06T19:43:17.256Z,11.10
2023-01-06T19:45:44.435Z,11.20
2023-01-06T19:48:30.404Z,11.20
2023-01-06T19:51:19.899Z,11.20
2023-01-06T19:53:52.764Z,11.20
2023-01-06T19:56:23.363Z,11.20
2023-01-06T19:59:02.872Z,11.20
2023-01-06T20:01:32.574Z,11.20
2023-01-06T20:03:59.627Z,11.30
2023-01-06T20:06:26.512Z,11.30
2023-01-06T20:08:53.666Z,11.30
2023-01-06T20:11:22.365Z,11.30
2023-01-06T20:13:49.307Z,11.30
2023-01-06T20:16:16.535Z,11.30
2023-01-06T20:18:43.243Z,11.30
2023-01-06T20:21:09.904Z,11.30
2023-01-06T20:23:36.745Z,11.30
2023-01-06T20:28:30.569Z,11.20
2023-01-06T20:35:51.705Z,11.20
2023-01-06T20:38:18.464Z,11.10
2023-01-06T20:43:12.175Z,11.10
2023-01-06T20:48:06.218Z,11.10
2023-01-06T20:50:32.947Z,11.10
2023-01-06T20:57:53.891Z,11.10
2023-01-06T21:02:47.736Z,11.20
2023-01-06T21:07:41.586Z,11.20
2023-01-06T21:10:08.787Z,11.20
2023-01-06T21:15:02.657Z,11.10
2023-01-06T21:17:29.331Z,11.10
2023-01-06T21:29:45.012Z,11.10
2023-01-06T21:32:12.027Z,11.10
2023-01-06T21:39:33.007Z,11.10
2023-01-06T21:44:45.589Z,11.10
2023-01-06T21:52:15.468Z,11.20
2023-01-06T21:54:43.982Z,11.20
2023-01-06T21:57:11.408Z,11.20
2023-01-06T22:02:05.758Z,11.30
2023-01-06T22:04:32.547Z,11.30
2023-01-06T22:07:01.832Z,11.30
2023-01-06T22:09:30.862Z,11.40
2023-01-06T22:11:57.989Z,11.40
2023-01-06T22:14:25.867Z,11.40
2023-01-06T22:16:52.922Z,11.40
2023-01-06T22:24:17.289Z,11.40
2023-01-06T22:26:44.471Z,11.50
2023-01-06T22:31:38.626Z,11.40
2023-01-06T22:34:07.161Z,11.50
2023-01-06T22:36:34.788Z,11.50
2023-01-06T22:39:01.469Z,11.40
2023-01-06T22:48:49.652Z,11.50
2023-01-06T22:51:16.520Z,11.40
2023-01-06T22:56:11.493Z,11.50
2023-01-06T22:58:40.919Z,11.40
2023-01-06T23:01:08.528Z,11.40
2023-01-06T23:03:35.911Z,11.40
2023-01-06T23:06:05.824Z,11.40
2023-01-06T23:08:34.161Z,11.40
2023-01-06T23:11:10.514Z,12.10
2023-01-06T23:13:38.688Z,11.30
2023-01-06T23:16:12.995Z,11.40
2023-01-06T23:18:43.230Z,11.40
2023-01-06T23:21:13.947Z,11.30
2023-01-06T23:23:42.451Z,11.30
2023-01-06T23:26:15.265Z,11.30
2023-01-06T23:28:42.873Z,11.30
2023-01-06T23:31:13.540Z,11.30
2023-01-06T23:33:42.157Z,11.20
2023-01-06T23:36:11.007Z,11.20
2023-01-06T23:38:38.041Z,11.20
2023-01-06T23:41:10.171Z,11.30
2023-01-06T23:43:37.710Z,11.20
2023-01-06T23:46:15.918Z,11.20
2023-01-06T23:48:43.447Z,11.20
2023-01-06T23:51:11.111Z,11.20
2023-01-06T23:53:39.081Z,11.10
2023-01-06T23:56:13.018Z,11.10
2023-01-06T23:58:41.160Z,11.20
